sensor_id;sensor_type;location;lat;lon;timestamp;P1;durP1;ratioP1;P2;durP2;ratioP2
62796;SDS011;48839;48.546;-4.178;2023-09-19T00:09:42;4.38;;;1.38;;
62796;SDS011;48839;48.546;-4.178;2023-09-19T00:15:45;11.27;;;1.52;;
62796;SDS011;48839;48.546;-4.178;2023-09-19T00:37:45;7.45;;;1.65;;
62796;SDS011;48839;48.546;-4.178;2023-09-19T00:43:15;7.80;;;1.85;;
62796;SDS011;48839;48.546;-4.178;2023-09-19T00:48:47;5.25;;;1.33;;
62796;SDS011;48839;48.546;-4.178;2023-09-19T00:54:18;11.85;;;2.08;;
62796;SDS011;48839;48.546;-4.178;2023-09-19T00:59:48;10.65;;;2.22;;
62796;SDS011;48839;48.546;-4.178;2023-09-19T01:05:22;4.38;;;1.40;;
62796;SDS011;48839;48.546;-4.178;2023-09-19T01:10:55;10.05;;;1.45;;
62796;SDS011;48839;48.546;-4.178;2023-09-19T01:22:07;14.13;;;2.13;;
62796;SDS011;48839;48.546;-4.178;2023-09-19T01:33:15;7.87;;;2.27;;
62796;SDS011;48839;48.546;-4.178;2023-09-19T01:38:46;7.68;;;1.73;;
62796;SDS011;48839;48.546;-4.178;2023-09-19T01:44:21;13.35;;;2.38;;
62796;SDS011;48839;48.546;-4.178;2023-09-19T01:49:55;6.57;;;1.95;;
62796;SDS011;48839;48.546;-4.178;2023-09-19T01:55:30;7.95;;;1.63;;
62796;SDS011;48839;48.546;-4.178;2023-09-19T02:01:00;9.30;;;1.43;;
62796;SDS011;48839;48.546;-4.178;2023-09-19T02:06:30;5.75;;;1.40;;
62796;SDS011;48839;48.546;-4.178;2023-09-19T02:12:02;6.20;;;1.55;;
62796;SDS011;48839;48.546;-4.178;2023-09-19T02:17:33;13.17;;;2.00;;
62796;SDS011;48839;48.546;-4.178;2023-09-19T02:23:03;5.97;;;1.58;;
62796;SDS011;48839;48.546;-4.178;2023-09-19T02:28:33;7.65;;;1.55;;
62796;SDS011;48839;48.546;-4.178;2023-09-19T02:34:04;5.93;;;1.50;;
62796;SDS011;48839;48.546;-4.178;2023-09-19T02:39:37;8.05;;;1.63;;
62796;SDS011;48839;48.546;-4.178;2023-09-19T02:45:08;6.55;;;1.45;;
62796;SDS011;48839;48.546;-4.178;2023-09-19T02:50:38;8.73;;;2.03;;
62796;SDS011;48839;48.546;-4.178;2023-09-19T02:56:09;11.47;;;1.80;;
62796;SDS011;48839;48.546;-4.178;2023-09-19T03:01:42;7.80;;;2.63;;
62796;SDS011;48839;48.546;-4.178;2023-09-19T03:07:12;6.97;;;1.60;;
62796;SDS011;48839;48.546;-4.178;2023-09-19T03:12:42;3.70;;;1.27;;
62796;SDS011;48839;48.546;-4.178;2023-09-19T03:18:14;4.47;;;1.88;;
62796;SDS011;48839;48.546;-4.178;2023-09-19T03:23:44;8.93;;;1.52;;
62796;SDS011;48839;48.546;-4.178;2023-09-19T03:29:15;4.63;;;2.40;;
62796;SDS011;48839;48.546;-4.178;2023-09-19T03:34:46;5.22;;;1.70;;
62796;SDS011;48839;48.546;-4.178;2023-09-19T03:40:17;6.85;;;1.73;;
62796;SDS011;48839;48.546;-4.178;2023-09-19T03:45:50;13.32;;;2.38;;
62796;SDS011;48839;48.546;-4.178;2023-09-19T03:51:22;9.73;;;1.37;;
62796;SDS011;48839;48.546;-4.178;2023-09-19T03:56:53;5.25;;;2.15;;
62796;SDS011;48839;48.546;-4.178;2023-09-19T04:02:24;5.53;;;1.53;;
62796;SDS011;48839;48.546;-4.178;2023-09-19T04:07:57;8.93;;;2.13;;
62796;SDS011;48839;48.546;-4.178;2023-09-19T04:13:33;7.10;;;1.40;;
62796;SDS011;48839;48.546;-4.178;2023-09-19T04:19:15;12.80;;;2.83;;
62796;SDS011;48839;48.546;-4.178;2023-09-19T04:24:50;15.32;;;3.60;;
62796;SDS011;48839;48.546;-4.178;2023-09-19T04:31:05;8.97;;;1.90;;
62796;SDS011;48839;48.546;-4.178;2023-09-19T04:36:40;11.15;;;2.60;;
62796;SDS011;48839;48.546;-4.178;2023-09-19T04:42:59;10.07;;;2.10;;
62796;SDS011;48839;48.546;-4.178;2023-09-19T04:49:15;11.40;;;2.28;;
62796;SDS011;48839;48.546;-4.178;2023-09-19T04:55:29;14.40;;;3.17;;
62796;SDS011;48839;48.546;-4.178;2023-09-19T05:01:15;18.80;;;2.35;;
62796;SDS011;48839;48.546;-4.178;2023-09-19T05:06:52;18.35;;;2.30;;
62796;SDS011;48839;48.546;-4.178;2023-09-19T05:12:30;13.80;;;2.13;;
62796;SDS011;48839;48.546;-4.178;2023-09-19T05:18:05;13.18;;;2.20;;
62796;SDS011;48839;48.546;-4.178;2023-09-19T05:23:38;8.73;;;2.20;;
62796;SDS011;48839;48.546;-4.178;2023-09-19T05:29:11;19.57;;;3.00;;
62796;SDS011;48839;48.546;-4.178;2023-09-19T05:34:44;11.20;;;2.47;;
62796;SDS011;48839;48.546;-4.178;2023-09-19T05:49:54;17.05;;;3.33;;
62796;SDS011;48839;48.546;-4.178;2023-09-19T05:55:44;9.63;;;2.00;;
62796;SDS011;48839;48.546;-4.178;2023-09-19T06:01:15;7.70;;;2.42;;
62796;SDS011;48839;48.546;-4.178;2023-09-19T06:06:45;12.00;;;2.83;;
62796;SDS011;48839;48.546;-4.178;2023-09-19T06:12:18;13.70;;;3.03;;
62796;SDS011;48839;48.546;-4.178;2023-09-19T06:17:49;12.13;;;2.00;;
62796;SDS011;48839;48.546;-4.178;2023-09-19T06:23:20;17.87;;;4.53;;
62796;SDS011;48839;48.546;-4.178;2023-09-19T06:28:53;15.15;;;2.35;;
62796;SDS011;48839;48.546;-4.178;2023-09-19T06:34:24;9.68;;;2.70;;
62796;SDS011;48839;48.546;-4.178;2023-09-19T06:36:51;21.42;;;2.78;;
62796;SDS011;48839;48.546;-4.178;2023-09-19T06:42:21;19.50;;;3.22;;
62796;SDS011;48839;48.546;-4.178;2023-09-19T06:47:55;14.15;;;2.55;;
62796;SDS011;48839;48.546;-4.178;2023-09-19T06:53:33;8.27;;;2.58;;
62796;SDS011;48839;48.546;-4.178;2023-09-19T06:59:06;13.07;;;2.65;;
62796;SDS011;48839;48.546;-4.178;2023-09-19T07:04:36;21.67;;;8.87;;
62796;SDS011;48839;48.546;-4.178;2023-09-19T07:10:12;87.97;;;46.93;;
62796;SDS011;48839;48.546;-4.178;2023-09-19T07:15:50;58.10;;;23.65;;
62796;SDS011;48839;48.546;-4.178;2023-09-19T07:22:13;48.63;;;18.20;;
62796;SDS011;48839;48.546;-4.178;2023-09-19T07:28:22;40.53;;;13.68;;
62796;SDS011;48839;48.546;-4.178;2023-09-19T07:39:51;53.30;;;16.92;;
62796;SDS011;48839;48.546;-4.178;2023-09-19T07:52:03;32.92;;;10.77;;
62796;SDS011;48839;48.546;-4.178;2023-09-19T07:57:42;23.83;;;8.80;;
62796;SDS011;48839;48.546;-4.178;2023-09-19T08:03:33;21.25;;;8.20;;
62796;SDS011;48839;48.546;-4.178;2023-09-19T08:09:11;23.17;;;7.63;;
62796;SDS011;48839;48.546;-4.178;2023-09-19T08:15:02;14.88;;;4.50;;
62796;SDS011;48839;48.546;-4.178;2023-09-19T08:20:35;12.82;;;5.85;;
62796;SDS011;48839;48.546;-4.178;2023-09-19T08:29:43;9.25;;;3.25;;
62796;SDS011;48839;48.546;-4.178;2023-09-19T08:35:15;10.88;;;3.10;;
62796;SDS011;48839;48.546;-4.178;2023-09-19T08:40:50;11.27;;;3.92;;
62796;SDS011;48839;48.546;-4.178;2023-09-19T08:46:28;11.10;;;3.40;;
62796;SDS011;48839;48.546;-4.178;2023-09-19T08:52:25;18.00;;;3.90;;
62796;SDS011;48839;48.546;-4.178;2023-09-19T08:58:13;17.55;;;3.92;;
62796;SDS011;48839;48.546;-4.178;2023-09-19T09:03:32;22.60;;;6.00;;
62796;SDS011;48839;48.546;-4.178;2023-09-19T09:09:10;12.77;;;3.50;;
62796;SDS011;48839;48.546;-4.178;2023-09-19T09:14:44;16.65;;;3.97;;
62796;SDS011;48839;48.546;-4.178;2023-09-19T09:20:17;17.45;;;5.50;;
62796;SDS011;48839;48.546;-4.178;2023-09-19T09:25:48;23.73;;;5.05;;
62796;SDS011;48839;48.546;-4.178;2023-09-19T09:31:25;13.63;;;4.03;;
62796;SDS011;48839;48.546;-4.178;2023-09-19T09:36:57;17.83;;;4.50;;
62796;SDS011;48839;48.546;-4.178;2023-09-19T09:42:34;16.48;;;4.88;;
62796;SDS011;48839;48.546;-4.178;2023-09-19T09:48:04;16.20;;;4.32;;
62796;SDS011;48839;48.546;-4.178;2023-09-19T09:53:46;16.48;;;3.55;;
62796;SDS011;48839;48.546;-4.178;2023-09-19T09:59:16;17.23;;;4.35;;
62796;SDS011;48839;48.546;-4.178;2023-09-19T10:04:47;19.87;;;3.73;;
62796;SDS011;48839;48.546;-4.178;2023-09-19T10:10:49;17.17;;;6.15;;
62796;SDS011;48839;48.546;-4.178;2023-09-19T10:16:47;18.90;;;4.80;;
62796;SDS011;48839;48.546;-4.178;2023-09-19T10:22:18;14.40;;;4.40;;
62796;SDS011;48839;48.546;-4.178;2023-09-19T10:27:52;18.60;;;4.07;;
62796;SDS011;48839;48.546;-4.178;2023-09-19T10:33:33;15.10;;;4.50;;
62796;SDS011;48839;48.546;-4.178;2023-09-19T10:39:06;15.43;;;4.35;;
62796;SDS011;48839;48.546;-4.178;2023-09-19T10:44:37;15.13;;;3.77;;
62796;SDS011;48839;48.546;-4.178;2023-09-19T10:50:17;16.60;;;4.07;;
62796;SDS011;48839;48.546;-4.178;2023-09-19T10:55:51;16.50;;;3.80;;
62796;SDS011;48839;48.546;-4.178;2023-09-19T11:01:22;21.50;;;4.80;;
62796;SDS011;48839;48.546;-4.178;2023-09-19T11:07:11;18.20;;;4.27;;
62796;SDS011;48839;48.546;-4.178;2023-09-19T11:29:51;16.15;;;5.10;;
62796;SDS011;48839;48.546;-4.178;2023-09-19T11:39:24;14.02;;;4.30;;
62796;SDS011;48839;48.546;-4.178;2023-09-19T11:44:55;19.40;;;4.77;;
62796;SDS011;48839;48.546;-4.178;2023-09-19T11:50:25;16.35;;;4.68;;
62796;SDS011;48839;48.546;-4.178;2023-09-19T11:55:57;17.23;;;3.70;;
62796;SDS011;48839;48.546;-4.178;2023-09-19T12:01:32;14.57;;;4.23;;
62796;SDS011;48839;48.546;-4.178;2023-09-19T12:07:07;14.20;;;3.80;;
62796;SDS011;48839;48.546;-4.178;2023-09-19T12:12:47;16.97;;;3.87;;
62796;SDS011;48839;48.546;-4.178;2023-09-19T12:18:30;15.48;;;4.18;;
62796;SDS011;48839;48.546;-4.178;2023-09-19T12:24:07;19.43;;;4.47;;
62796;SDS011;48839;48.546;-4.178;2023-09-19T12:29:48;23.17;;;4.27;;
62796;SDS011;48839;48.546;-4.178;2023-09-19T12:35:28;17.17;;;4.10;;
62796;SDS011;48839;48.546;-4.178;2023-09-19T12:40:59;15.07;;;3.92;;
62796;SDS011;48839;48.546;-4.178;2023-09-19T12:46:29;19.23;;;4.20;;
62796;SDS011;48839;48.546;-4.178;2023-09-19T12:52:01;17.92;;;4.57;;
62796;SDS011;48839;48.546;-4.178;2023-09-19T12:57:30;14.10;;;3.30;;
62796;SDS011;48839;48.546;-4.178;2023-09-19T13:09:07;14.32;;;3.67;;
62796;SDS011;48839;48.546;-4.178;2023-09-19T13:14:38;15.25;;;4.20;;
62796;SDS011;48839;48.546;-4.178;2023-09-19T13:25:55;16.23;;;3.93;;
62796;SDS011;48839;48.546;-4.178;2023-09-19T13:31:25;22.02;;;4.32;;
62796;SDS011;48839;48.546;-4.178;2023-09-19T13:36:56;16.00;;;3.88;;
62796;SDS011;48839;48.546;-4.178;2023-09-19T13:42:29;15.93;;;3.67;;
62796;SDS011;48839;48.546;-4.178;2023-09-19T13:47:59;11.50;;;3.85;;
62796;SDS011;48839;48.546;-4.178;2023-09-19T13:53:29;17.87;;;4.80;;
62796;SDS011;48839;48.546;-4.178;2023-09-19T13:58:59;18.10;;;4.13;;
62796;SDS011;48839;48.546;-4.178;2023-09-19T14:04:31;18.57;;;4.57;;
62796;SDS011;48839;48.546;-4.178;2023-09-19T14:10:03;17.90;;;4.35;;
62796;SDS011;48839;48.546;-4.178;2023-09-19T14:15:37;18.60;;;3.88;;
62796;SDS011;48839;48.546;-4.178;2023-09-19T14:21:06;11.13;;;3.42;;
62796;SDS011;48839;48.546;-4.178;2023-09-19T14:26:39;16.33;;;4.10;;
62796;SDS011;48839;48.546;-4.178;2023-09-19T14:32:09;16.30;;;3.80;;
62796;SDS011;48839;48.546;-4.178;2023-09-19T14:37:39;16.77;;;4.68;;
62796;SDS011;48839;48.546;-4.178;2023-09-19T14:43:09;19.17;;;3.93;;
62796;SDS011;48839;48.546;-4.178;2023-09-19T14:48:39;12.82;;;3.30;;
62796;SDS011;48839;48.546;-4.178;2023-09-19T14:54:09;11.98;;;3.85;;
62796;SDS011;48839;48.546;-4.178;2023-09-19T14:59:38;20.08;;;4.60;;
62796;SDS011;48839;48.546;-4.178;2023-09-19T15:05:08;22.77;;;4.72;;
62796;SDS011;48839;48.546;-4.178;2023-09-19T15:10:37;18.25;;;4.32;;
62796;SDS011;48839;48.546;-4.178;2023-09-19T15:16:07;18.48;;;3.78;;
62796;SDS011;48839;48.546;-4.178;2023-09-19T15:21:37;19.77;;;4.40;;
62796;SDS011;48839;48.546;-4.178;2023-09-19T15:27:07;13.68;;;3.80;;
62796;SDS011;48839;48.546;-4.178;2023-09-19T15:32:37;13.52;;;3.72;;
62796;SDS011;48839;48.546;-4.178;2023-09-19T15:38:07;15.88;;;4.97;;
62796;SDS011;48839;48.546;-4.178;2023-09-19T15:43:37;13.10;;;4.03;;
62796;SDS011;48839;48.546;-4.178;2023-09-19T15:49:07;20.13;;;4.70;;
62796;SDS011;48839;48.546;-4.178;2023-09-19T15:54:37;20.97;;;5.50;;
62796;SDS011;48839;48.546;-4.178;2023-09-19T16:00:12;17.97;;;4.73;;
62796;SDS011;48839;48.546;-4.178;2023-09-19T16:05:45;18.95;;;4.32;;
62796;SDS011;48839;48.546;-4.178;2023-09-19T16:11:15;17.05;;;3.20;;
62796;SDS011;48839;48.546;-4.178;2023-09-19T16:16:45;7.68;;;3.67;;
62796;SDS011;48839;48.546;-4.178;2023-09-19T16:22:15;6.90;;;2.83;;
62796;SDS011;48839;48.546;-4.178;2023-09-19T16:27:45;7.50;;;2.25;;
62796;SDS011;48839;48.546;-4.178;2023-09-19T16:33:15;6.03;;;2.37;;
62796;SDS011;48839;48.546;-4.178;2023-09-19T16:38:46;7.45;;;3.15;;
62796;SDS011;48839;48.546;-4.178;2023-09-19T16:44:19;10.68;;;2.95;;
62796;SDS011;48839;48.546;-4.178;2023-09-19T16:49:49;16.30;;;3.70;;
62796;SDS011;48839;48.546;-4.178;2023-09-19T16:55:19;11.15;;;3.30;;
62796;SDS011;48839;48.546;-4.178;2023-09-19T17:00:49;5.90;;;2.67;;
62796;SDS011;48839;48.546;-4.178;2023-09-19T17:06:20;9.27;;;2.83;;
62796;SDS011;48839;48.546;-4.178;2023-09-19T17:11:52;13.30;;;3.23;;
62796;SDS011;48839;48.546;-4.178;2023-09-19T17:17:22;10.02;;;3.53;;
62796;SDS011;48839;48.546;-4.178;2023-09-19T17:22:51;12.60;;;3.38;;
62796;SDS011;48839;48.546;-4.178;2023-09-19T17:28:21;9.73;;;3.92;;
62796;SDS011;48839;48.546;-4.178;2023-09-19T17:33:51;11.13;;;2.90;;
62796;SDS011;48839;48.546;-4.178;2023-09-19T17:39:21;11.03;;;2.57;;
62796;SDS011;48839;48.546;-4.178;2023-09-19T17:44:51;12.88;;;3.10;;
62796;SDS011;48839;48.546;-4.178;2023-09-19T17:50:21;6.97;;;3.65;;
62796;SDS011;48839;48.546;-4.178;2023-09-19T17:55:53;10.38;;;3.00;;
62796;SDS011;48839;48.546;-4.178;2023-09-19T18:01:24;10.00;;;2.42;;
62796;SDS011;48839;48.546;-4.178;2023-09-19T18:06:55;6.57;;;2.30;;
62796;SDS011;48839;48.546;-4.178;2023-09-19T18:12:26;6.38;;;2.17;;
62796;SDS011;48839;48.546;-4.178;2023-09-19T18:17:56;7.27;;;2.20;;
62796;SDS011;48839;48.546;-4.178;2023-09-19T18:23:26;7.50;;;2.07;;
62796;SDS011;48839;48.546;-4.178;2023-09-19T18:28:59;6.77;;;3.03;;
62796;SDS011;48839;48.546;-4.178;2023-09-19T18:34:29;10.32;;;2.35;;
62796;SDS011;48839;48.546;-4.178;2023-09-19T18:40:00;5.73;;;1.90;;
62796;SDS011;48839;48.546;-4.178;2023-09-19T18:45:31;6.10;;;2.23;;
62796;SDS011;48839;48.546;-4.178;2023-09-19T18:51:04;7.32;;;2.35;;
62796;SDS011;48839;48.546;-4.178;2023-09-19T18:56:35;7.82;;;2.30;;
62796;SDS011;48839;48.546;-4.178;2023-09-19T19:02:06;7.40;;;2.22;;
62796;SDS011;48839;48.546;-4.178;2023-09-19T19:07:39;8.95;;;2.30;;
62796;SDS011;48839;48.546;-4.178;2023-09-19T19:13:09;5.47;;;2.38;;
62796;SDS011;48839;48.546;-4.178;2023-09-19T19:18:39;4.63;;;2.10;;
62796;SDS011;48839;48.546;-4.178;2023-09-19T19:24:09;1.80;;;1.25;;
62796;SDS011;48839;48.546;-4.178;2023-09-19T19:35:22;5.50;;;2.20;;
62796;SDS011;48839;48.546;-4.178;2023-09-19T19:41:01;5.40;;;1.92;;
62796;SDS011;48839;48.546;-4.178;2023-09-19T19:46:31;8.88;;;2.50;;
62796;SDS011;48839;48.546;-4.178;2023-09-19T19:52:00;7.65;;;2.50;;
62796;SDS011;48839;48.546;-4.178;2023-09-19T19:57:30;6.82;;;2.38;;
62796;SDS011;48839;48.546;-4.178;2023-09-19T20:03:00;6.00;;;2.03;;
62796;SDS011;48839;48.546;-4.178;2023-09-19T20:08:30;6.47;;;2.28;;
62796;SDS011;48839;48.546;-4.178;2023-09-19T20:14:02;5.97;;;2.10;;
62796;SDS011;48839;48.546;-4.178;2023-09-19T20:19:34;6.13;;;2.33;;
62796;SDS011;48839;48.546;-4.178;2023-09-19T20:25:05;5.80;;;2.77;;
62796;SDS011;48839;48.546;-4.178;2023-09-19T20:30:37;4.38;;;2.20;;
62796;SDS011;48839;48.546;-4.178;2023-09-19T20:36:11;4.07;;;2.23;;
62796;SDS011;48839;48.546;-4.178;2023-09-19T20:41:43;6.50;;;2.67;;
62796;SDS011;48839;48.546;-4.178;2023-09-19T20:47:14;7.32;;;2.70;;
62796;SDS011;48839;48.546;-4.178;2023-09-19T20:52:44;8.67;;;2.70;;
62796;SDS011;48839;48.546;-4.178;2023-09-19T20:58:13;7.35;;;2.88;;
62796;SDS011;48839;48.546;-4.178;2023-09-19T21:03:43;7.20;;;2.78;;
62796;SDS011;48839;48.546;-4.178;2023-09-19T21:09:13;11.97;;;3.73;;
62796;SDS011;48839;48.546;-4.178;2023-09-19T21:14:44;14.23;;;4.40;;
62796;SDS011;48839;48.546;-4.178;2023-09-19T21:20:15;10.93;;;3.87;;
62796;SDS011;48839;48.546;-4.178;2023-09-19T21:25:54;12.50;;;4.50;;
62796;SDS011;48839;48.546;-4.178;2023-09-19T21:31:24;15.43;;;4.90;;
62796;SDS011;48839;48.546;-4.178;2023-09-19T21:36:54;11.27;;;4.63;;
62796;SDS011;48839;48.546;-4.178;2023-09-19T21:42:25;17.65;;;5.80;;
62796;SDS011;48839;48.546;-4.178;2023-09-19T21:47:55;12.15;;;4.47;;
62796;SDS011;48839;48.546;-4.178;2023-09-19T21:53:25;11.93;;;4.60;;
62796;SDS011;48839;48.546;-4.178;2023-09-19T21:58:55;10.43;;;4.57;;
62796;SDS011;48839;48.546;-4.178;2023-09-19T22:04:25;10.65;;;3.97;;
62796;SDS011;48839;48.546;-4.178;2023-09-19T22:09:55;14.33;;;4.43;;
62796;SDS011;48839;48.546;-4.178;2023-09-19T22:15:25;10.83;;;4.47;;
62796;SDS011;48839;48.546;-4.178;2023-09-19T22:20:57;8.50;;;3.88;;
62796;SDS011;48839;48.546;-4.178;2023-09-19T22:26:40;9.20;;;4.15;;
62796;SDS011;48839;48.546;-4.178;2023-09-19T22:32:14;19.37;;;5.00;;
62796;SDS011;48839;48.546;-4.178;2023-09-19T22:37:48;8.15;;;3.42;;
62796;SDS011;48839;48.546;-4.178;2023-09-19T22:43:19;10.30;;;3.80;;
62796;SDS011;48839;48.546;-4.178;2023-09-19T22:49:00;14.85;;;4.68;;
62796;SDS011;48839;48.546;-4.178;2023-09-19T22:54:54;9.23;;;2.92;;
62796;SDS011;48839;48.546;-4.178;2023-09-19T23:00:27;7.97;;;3.87;;
62796;SDS011;48839;48.546;-4.178;2023-09-19T23:05:58;10.70;;;3.80;;
62796;SDS011;48839;48.546;-4.178;2023-09-19T23:11:29;12.73;;;4.15;;
62796;SDS011;48839;48.546;-4.178;2023-09-19T23:17:04;18.30;;;4.00;;
62796;SDS011;48839;48.546;-4.178;2023-09-19T23:22:45;8.40;;;3.67;;
62796;SDS011;48839;48.546;-4.178;2023-09-19T23:28:20;10.50;;;4.22;;
62796;SDS011;48839;48.546;-4.178;2023-09-19T23:33:52;10.95;;;4.38;;
62796;SDS011;48839;48.546;-4.178;2023-09-19T23:39:26;11.25;;;4.20;;
62796;SDS011;48839;48.546;-4.178;2023-09-19T23:54:29;21.65;;;5.03;;
